createdAt,value
2023-04-15T00:01:08.109Z,14.30
2023-04-15T00:03:35.608Z,11.33
2023-04-15T00:06:03.705Z,12.20
2023-04-15T00:08:31.239Z,9.53
2023-04-15T00:11:02.931Z,10.60
2023-04-15T00:13:30.383Z,9.50
2023-04-15T00:15:58.121Z,10.70
2023-04-15T00:18:26.117Z,13.33
2023-04-15T00:20:53.524Z,14.40
2023-04-15T00:23:20.753Z,9.17
2023-04-15T00:25:48.145Z,10.87
2023-04-15T00:28:15.330Z,10.03
2023-04-15T00:30:42.689Z,10.43
2023-04-15T00:33:10.355Z,14.00
2023-04-15T00:35:37.668Z,10.57
2023-04-15T00:38:05.465Z,13.97
2023-04-15T00:40:33.359Z,10.37
2023-04-15T00:43:00.826Z,12.03
2023-04-15T00:45:28.676Z,14.40
2023-04-15T00:47:56.070Z,9.53
2023-04-15T00:50:23.559Z,10.80
2023-04-15T00:52:50.696Z,11.47
2023-04-15T00:55:17.837Z,11.73
2023-04-15T00:57:45.533Z,9.93
2023-04-15T01:00:12.852Z,12.33
2023-04-15T01:02:40.266Z,8.90
2023-04-15T01:05:08.595Z,9.50
2023-04-15T01:07:36.048Z,11.10
2023-04-15T01:10:06.438Z,10.47
2023-04-15T01:12:34.386Z,12.30
2023-04-15T01:15:01.714Z,10.77
2023-04-15T01:17:28.929Z,9.73
2023-04-15T01:19:59.948Z,12.17
2023-04-15T01:22:27.212Z,12.63
2023-04-15T01:25:08.448Z,12.30
2023-04-15T01:27:36.329Z,15.13
2023-04-15T01:30:05.410Z,9.93
2023-04-15T01:32:32.668Z,11.30
2023-04-15T01:34:59.823Z,12.37
2023-04-15T01:37:27.519Z,12.60
2023-04-15T01:39:54.720Z,13.20
2023-04-15T01:42:24.986Z,11.23
2023-04-15T01:44:52.346Z,11.97
2023-04-15T01:47:19.602Z,11.80
2023-04-15T01:49:46.831Z,16.07
2023-04-15T01:52:14.407Z,12.00
2023-04-15T01:54:41.787Z,9.23
2023-04-15T01:57:09.379Z,13.83
2023-04-15T01:59:39.272Z,11.40
2023-04-15T02:02:06.477Z,10.43
2023-04-15T02:04:34.197Z,11.20
2023-04-15T02:07:01.790Z,11.43
2023-04-15T02:09:29.208Z,12.00
2023-04-15T02:11:56.387Z,12.63
2023-04-15T02:14:24.619Z,13.87
2023-04-15T02:16:51.807Z,16.30
2023-04-15T02:19:19.005Z,14.20
2023-04-15T02:21:46.321Z,12.77
2023-04-15T02:24:13.606Z,11.30
2023-04-15T02:26:40.768Z,12.70
2023-04-15T02:29:07.887Z,13.00
2023-04-15T02:31:38.330Z,12.80
2023-04-15T02:34:05.821Z,15.77
2023-04-15T02:36:34.614Z,13.90
2023-04-15T02:39:02.467Z,11.37
2023-04-15T02:41:30.384Z,19.50
2023-04-15T02:43:57.520Z,12.50
2023-04-15T02:46:24.935Z,13.33
2023-04-15T02:48:53.740Z,14.40
2023-04-15T02:51:22.847Z,13.27
2023-04-15T02:53:50.711Z,11.97
2023-04-15T02:56:19.659Z,13.13
2023-04-15T02:58:46.980Z,14.07
2023-04-15T03:01:14.667Z,16.30
2023-04-15T03:03:42.022Z,14.77
2023-04-15T03:06:09.487Z,17.53
2023-04-15T03:08:37.300Z,12.57
2023-04-15T03:11:04.869Z,14.97
2023-04-15T03:13:32.049Z,11.77
2023-04-15T03:16:00.637Z,11.30
2023-04-15T03:18:29.275Z,15.73
2023-04-15T03:20:56.414Z,12.43
2023-04-15T03:23:23.693Z,12.10
2023-04-15T03:25:50.907Z,16.43
2023-04-15T03:28:18.078Z,15.03
2023-04-15T03:30:45.229Z,13.40
2023-04-15T03:33:12.485Z,11.63
2023-04-15T03:35:39.682Z,12.67
2023-04-15T03:38:08.233Z,11.73
2023-04-15T03:40:35.647Z,12.57
2023-04-15T03:43:02.940Z,11.20
2023-04-15T03:45:30.102Z,15.70
2023-04-15T03:48:03.580Z,14.13
2023-04-15T03:50:41.694Z,14.67
2023-04-15T03:53:08.789Z,11.80
2023-04-15T03:55:35.666Z,13.50
2023-04-15T03:58:02.423Z,11.47
2023-04-15T04:00:29.470Z,12.47
2023-04-15T04:02:56.498Z,10.80
2023-04-15T04:05:23.408Z,13.50
2023-04-15T04:07:50.660Z,12.50
2023-04-15T04:10:17.871Z,11.43
2023-04-15T04:12:45.093Z,12.90
2023-04-15T04:15:12.466Z,10.73
2023-04-15T04:17:39.629Z,13.67
2023-04-15T04:20:07.558Z,14.23
2023-04-15T04:22:39.842Z,10.87
2023-04-15T04:25:08.639Z,11.47
2023-04-15T04:27:36.052Z,11.60
2023-04-15T04:30:03.341Z,12.80
2023-04-15T04:32:30.810Z,14.63
2023-04-15T04:34:58.019Z,11.20
2023-04-15T04:37:25.736Z,14.47
2023-04-15T04:39:52.879Z,13.10
2023-04-15T04:42:20.499Z,11.83
2023-04-15T04:44:47.861Z,10.73
2023-04-15T04:47:17.165Z,11.83
2023-04-15T04:49:44.418Z,11.27
2023-04-15T04:52:11.886Z,12.20
2023-04-15T04:54:39.531Z,12.07
2023-04-15T04:57:08.130Z,10.90
2023-04-15T04:59:35.669Z,12.37
2023-04-15T05:02:03.567Z,14.93
2023-04-15T05:04:31.979Z,11.63
2023-04-15T05:06:59.774Z,11.80
2023-04-15T05:09:26.929Z,12.97
2023-04-15T05:11:54.185Z,13.70
2023-04-15T05:14:23.350Z,13.43
2023-04-15T05:16:50.626Z,11.03
2023-04-15T05:19:17.756Z,14.07
2023-04-15T05:21:44.970Z,11.53
2023-04-15T05:24:12.218Z,12.77
2023-04-15T05:26:39.453Z,11.90
2023-04-15T05:29:06.604Z,12.00
2023-04-15T05:31:33.933Z,11.87
2023-04-15T05:34:01.528Z,13.77
2023-04-15T05:36:28.832Z,13.67
2023-04-15T05:38:56.437Z,11.80
2023-04-15T05:41:23.685Z,15.47
2023-04-15T05:43:50.850Z,12.13
2023-04-15T05:46:18.078Z,11.83
2023-04-15T05:48:45.521Z,12.50
2023-04-15T05:51:12.731Z,12.83
2023-04-15T05:53:41.595Z,12.30
2023-04-15T05:56:08.766Z,12.93
2023-04-15T05:58:36.046Z,12.30
2023-04-15T06:01:04.117Z,13.57
2023-04-15T06:03:31.340Z,14.27
2023-04-15T06:05:58.556Z,13.00
2023-04-15T06:08:25.856Z,13.07
2023-04-15T06:10:53.009Z,15.60
2023-04-15T06:13:20.198Z,14.47
2023-04-15T06:15:47.459Z,14.20
2023-04-15T06:18:14.706Z,16.63
2023-04-15T06:20:41.937Z,16.20
2023-04-15T06:23:09.199Z,15.77
2023-04-15T06:25:36.472Z,27.70
2023-04-15T06:28:03.662Z,20.40
2023-04-15T06:30:30.926Z,18.00
2023-04-15T06:32:58.141Z,16.60
2023-04-15T06:35:25.368Z,15.30
2023-04-15T06:37:52.668Z,15.37
2023-04-15T06:40:19.813Z,17.70
2023-04-15T06:42:46.989Z,15.77
2023-04-15T06:45:14.418Z,17.47
2023-04-15T06:47:42.042Z,17.27
2023-04-15T06:50:12.459Z,14.60
2023-04-15T06:52:39.695Z,15.70
2023-04-15T06:55:09.742Z,15.07
2023-04-15T06:57:37.139Z,15.43
2023-04-15T07:00:05.778Z,15.80
2023-04-15T07:02:33.044Z,16.37
2023-04-15T07:05:00.344Z,15.67
2023-04-15T07:07:27.768Z,13.73
2023-04-15T07:09:54.902Z,16.80
2023-04-15T07:12:22.107Z,14.77
2023-04-15T07:14:49.560Z,13.23
2023-04-15T07:17:16.966Z,12.57
2023-04-15T07:19:44.148Z,13.00
2023-04-15T07:22:11.446Z,13.50
2023-04-15T07:24:38.744Z,10.80
2023-04-15T07:27:06.023Z,10.37
2023-04-15T07:29:33.271Z,10.90
2023-04-15T07:32:00.405Z,10.30
2023-04-15T07:34:27.681Z,10.17
2023-04-15T07:36:54.880Z,10.17
2023-04-15T07:39:22.427Z,10.37
2023-04-15T07:41:49.630Z,10.37
2023-04-15T07:44:16.815Z,10.57
2023-04-15T07:46:43.994Z,9.27
2023-04-15T07:49:11.253Z,8.97
2023-04-15T07:51:39.017Z,8.53
2023-04-15T07:54:06.197Z,9.33
2023-04-15T07:56:33.357Z,7.37
2023-04-15T07:59:02.473Z,7.67
2023-04-15T08:01:29.992Z,7.87
2023-04-15T08:03:57.836Z,7.43
2023-04-15T08:06:25.208Z,7.30
2023-04-15T08:08:52.836Z,6.00
2023-04-15T08:11:20.047Z,4.97
2023-04-15T08:13:47.364Z,4.30
2023-04-15T08:16:14.691Z,6.83
2023-04-15T08:18:41.932Z,4.67
2023-04-15T08:21:11.581Z,5.00
2023-04-15T08:23:39.407Z,4.60
2023-04-15T08:26:06.743Z,5.10
2023-04-15T08:28:33.994Z,4.40
2023-04-15T08:31:01.368Z,4.30
2023-04-15T08:33:29.044Z,4.00
2023-04-15T08:35:56.668Z,11.97
2023-04-15T08:38:23.961Z,4.23
2023-04-15T08:40:51.878Z,4.50
2023-04-15T08:43:27.034Z,6.30
2023-04-15T08:45:54.312Z,4.57
2023-04-15T08:48:23.993Z,5.83
2023-04-15T08:50:51.740Z,4.97
2023-04-15T08:53:19.221Z,4.43
2023-04-15T08:55:47.387Z,3.50
2023-04-15T08:58:15.774Z,5.20
2023-04-15T09:00:43.238Z,3.97
2023-04-15T09:03:10.834Z,4.43
2023-04-15T09:05:41.255Z,3.93
2023-04-15T09:08:08.652Z,5.20
2023-04-15T09:10:36.293Z,6.70
2023-04-15T09:13:04.524Z,4.50
2023-04-15T09:15:33.758Z,4.80
2023-04-15T09:18:01.260Z,5.70
2023-04-15T09:20:28.433Z,3.53
2023-04-15T09:22:55.615Z,5.73
2023-04-15T09:25:22.745Z,10.57
2023-04-15T09:27:50.387Z,3.40
2023-04-15T09:30:17.766Z,4.10
2023-04-15T09:32:58.042Z,3.50
2023-04-15T09:35:26.230Z,4.53
2023-04-15T09:37:53.747Z,4.67
2023-04-15T09:40:39.493Z,3.70
2023-04-15T09:43:07.321Z,3.80
2023-04-15T09:45:35.802Z,4.83
2023-04-15T09:48:17.342Z,5.10
2023-04-15T09:50:44.760Z,5.27
2023-04-15T09:53:12.476Z,4.40
2023-04-15T09:55:39.637Z,4.57
2023-04-15T09:58:10.631Z,5.20
2023-04-15T10:00:41.799Z,6.77
2023-04-15T10:03:11.748Z,4.70
2023-04-15T10:05:39.792Z,4.53
2023-04-15T10:08:07.729Z,5.73
2023-04-15T10:10:35.015Z,4.40
2023-04-15T10:13:02.695Z,4.73
2023-04-15T10:15:30.579Z,5.30
2023-04-15T10:17:59.021Z,4.43
2023-04-15T10:20:26.279Z,7.30
2023-04-15T10:22:54.277Z,5.27
2023-04-15T10:25:22.174Z,4.63
2023-04-15T10:27:52.145Z,5.00
2023-04-15T10:30:19.398Z,7.53
2023-04-15T10:32:46.726Z,4.90
2023-04-15T10:35:14.177Z,5.37
2023-04-15T10:37:41.361Z,5.83
2023-04-15T10:40:28.345Z,4.28
2023-04-15T10:42:56.641Z,5.10
2023-04-15T10:45:25.950Z,5.32
2023-04-15T10:47:55.556Z,5.90
2023-04-15T10:50:22.841Z,5.53
2023-04-15T10:52:52.330Z,5.07
2023-04-15T10:55:21.934Z,4.87
2023-04-15T10:57:52.985Z,5.40
2023-04-15T11:00:20.992Z,4.03
2023-04-15T11:02:49.525Z,4.37
2023-04-15T11:05:17.246Z,5.23
2023-04-15T11:07:44.632Z,4.53
2023-04-15T11:10:14.845Z,4.10
2023-04-15T11:12:42.221Z,5.53
2023-04-15T11:15:28.916Z,4.90
2023-04-15T11:17:56.864Z,4.57
2023-04-15T11:20:24.206Z,4.67
2023-04-15T11:22:52.550Z,4.63
2023-04-15T11:25:39.071Z,5.50
2023-04-15T11:28:07.609Z,4.60
2023-04-15T11:30:35.784Z,5.17
2023-04-15T11:33:04.153Z,4.40
2023-04-15T11:35:31.690Z,4.20
2023-04-15T11:37:59.132Z,5.50
2023-04-15T11:40:27.359Z,4.33
2023-04-15T11:43:13.280Z,4.63
2023-04-15T11:45:49.944Z,4.30
2023-04-15T11:48:17.142Z,3.30
2023-04-15T11:50:44.305Z,3.43
2023-04-15T11:53:12.489Z,4.20
2023-04-15T11:55:44.687Z,5.43
2023-04-15T11:58:16.434Z,4.30
2023-04-15T12:00:48.025Z,4.40
2023-04-15T12:03:21.441Z,3.80
2023-04-15T12:06:07.336Z,4.17
2023-04-15T12:08:53.271Z,2.60
2023-04-15T12:11:40.740Z,3.73
2023-04-15T12:14:09.433Z,3.83
2023-04-15T12:16:48.029Z,4.67
2023-04-15T12:19:17.641Z,6.43
2023-04-15T12:21:46.049Z,3.83
2023-04-15T12:24:13.422Z,3.77
2023-04-15T12:26:48.496Z,3.73
2023-04-15T12:29:19.471Z,5.03
2023-04-15T12:31:50.703Z,2.93
2023-04-15T12:34:17.900Z,4.17
2023-04-15T12:36:45.041Z,5.00
2023-04-15T12:39:12.331Z,9.60
2023-04-15T12:41:42.492Z,5.83
2023-04-15T12:44:10.162Z,4.57
2023-04-15T12:46:37.611Z,5.87
2023-04-15T12:49:04.895Z,8.63
2023-04-15T12:51:32.336Z,4.77
2023-04-15T12:53:59.666Z,3.43
2023-04-15T12:56:26.986Z,4.80
2023-04-15T12:58:54.299Z,3.87
2023-04-15T13:01:23.802Z,4.00
2023-04-15T13:03:51.235Z,4.30
2023-04-15T13:06:18.564Z,3.93
2023-04-15T13:08:57.304Z,3.43
2023-04-15T13:11:25.413Z,4.40
2023-04-15T13:13:52.973Z,8.17
2023-04-15T13:16:20.809Z,8.57
2023-04-15T13:18:48.942Z,5.23
2023-04-15T13:21:16.181Z,4.10
2023-04-15T13:23:43.558Z,5.30
2023-04-15T13:26:10.748Z,4.03
2023-04-15T13:28:38.438Z,3.80
2023-04-15T13:31:06.490Z,3.77
2023-04-15T13:33:33.660Z,3.10
2023-04-15T13:36:00.890Z,2.97
2023-04-15T13:38:28.014Z,4.27
2023-04-15T13:40:55.246Z,3.90
2023-04-15T13:43:22.690Z,4.93
2023-04-15T13:45:50.057Z,4.17
2023-04-15T13:48:17.787Z,5.63
2023-04-15T13:50:45.672Z,3.47
2023-04-15T13:53:13.602Z,5.97
2023-04-15T13:55:42.649Z,2.97
2023-04-15T13:58:10.257Z,3.77
2023-04-15T14:00:37.599Z,3.90
2023-04-15T14:03:05.653Z,3.47
2023-04-15T14:05:33.474Z,3.77
2023-04-15T14:08:00.808Z,3.47
2023-04-15T14:10:28.056Z,3.40
2023-04-15T14:12:55.284Z,3.60
2023-04-15T14:15:22.594Z,2.70
2023-04-15T14:17:49.818Z,4.17
2023-04-15T14:20:17.400Z,4.40
2023-04-15T14:22:44.699Z,2.87
2023-04-15T14:25:17.485Z,3.13
2023-04-15T14:27:47.298Z,3.03
2023-04-15T14:30:14.664Z,4.00
2023-04-15T14:32:41.974Z,2.87
2023-04-15T14:35:12.094Z,3.80
2023-04-15T14:37:39.362Z,2.57
2023-04-15T14:40:07.022Z,3.40
2023-04-15T14:42:34.298Z,2.73
2023-04-15T14:45:01.599Z,2.10
2023-04-15T14:47:28.917Z,4.07
2023-04-15T14:49:56.095Z,6.00
2023-04-15T14:52:23.279Z,4.97
2023-04-15T14:54:50.472Z,3.50
2023-04-15T14:57:17.611Z,4.27
2023-04-15T14:59:45.026Z,2.90
2023-04-15T15:02:14.676Z,3.47
2023-04-15T15:04:44.480Z,2.77
2023-04-15T15:07:12.132Z,2.30
2023-04-15T15:09:39.432Z,2.87
2023-04-15T15:12:06.734Z,3.57
2023-04-15T15:14:33.976Z,2.87
2023-04-15T15:17:01.186Z,4.20
2023-04-15T15:19:28.419Z,3.60
2023-04-15T15:21:55.609Z,3.77
2023-04-15T15:24:22.739Z,4.43
2023-04-15T15:26:50.093Z,5.43
2023-04-15T15:29:17.273Z,5.70
2023-04-15T15:31:44.544Z,4.07
2023-04-15T15:34:11.799Z,4.90
2023-04-15T15:36:39.066Z,6.33
2023-04-15T15:39:06.428Z,4.40
2023-04-15T15:41:33.924Z,4.70
2023-04-15T15:44:01.114Z,4.40
2023-04-15T15:46:28.431Z,4.37
2023-04-15T15:48:55.829Z,6.80
2023-04-15T15:51:22.993Z,4.20
2023-04-15T15:53:50.431Z,3.77
2023-04-15T15:56:17.552Z,4.63
2023-04-15T15:58:45.162Z,9.07
2023-04-15T16:01:12.648Z,4.83
2023-04-15T16:03:40.004Z,7.33
2023-04-15T16:06:07.539Z,17.77
2023-04-15T16:08:34.705Z,5.60
2023-04-15T16:11:01.913Z,5.87
2023-04-15T16:13:29.216Z,9.00
2023-04-15T16:15:56.433Z,7.70
2023-04-15T16:18:23.579Z,4.80
2023-04-15T16:20:50.925Z,4.77
2023-04-15T16:23:18.238Z,5.00
2023-04-15T16:25:45.710Z,5.50
2023-04-15T16:28:25.526Z,5.87
2023-04-15T16:30:53.931Z,7.03
2023-04-15T16:33:21.257Z,6.63
2023-04-15T16:35:48.616Z,7.93
2023-04-15T16:38:15.785Z,5.63
2023-04-15T16:40:43.097Z,6.23
2023-04-15T16:43:11.514Z,7.77
2023-04-15T16:45:41.376Z,6.63
2023-04-15T16:48:08.831Z,10.27
2023-04-15T16:50:37.596Z,8.53
2023-04-15T16:53:04.920Z,5.90
2023-04-15T16:55:32.210Z,5.20
2023-04-15T16:58:01.426Z,7.20
2023-04-15T17:00:30.058Z,5.40
2023-04-15T17:02:57.679Z,6.60
2023-04-15T17:05:27.641Z,4.90
2023-04-15T17:07:55.163Z,7.10
2023-04-15T17:10:22.474Z,7.23
2023-04-15T17:12:52.194Z,8.70
2023-04-15T17:15:19.938Z,7.43
2023-04-15T17:17:47.480Z,11.67
2023-04-15T17:20:17.325Z,5.43
2023-04-15T17:22:44.876Z,8.20
2023-04-15T17:25:12.131Z,10.93
2023-04-15T17:27:39.415Z,7.70
2023-04-15T17:30:07.859Z,9.47
2023-04-15T17:32:35.307Z,7.27
2023-04-15T17:35:06.013Z,5.93
2023-04-15T17:37:36.389Z,7.50
2023-04-15T17:40:05.854Z,7.00
2023-04-15T17:42:35.550Z,8.13
2023-04-15T17:45:02.808Z,5.00
2023-04-15T17:47:30.117Z,9.23
2023-04-15T17:49:57.300Z,10.73
2023-04-15T17:52:24.524Z,9.03
2023-04-15T17:54:51.661Z,9.33
2023-04-15T17:57:18.988Z,7.57
2023-04-15T17:59:47.793Z,8.43
2023-04-15T18:02:16.029Z,7.20
2023-04-15T18:04:43.798Z,8.07
2023-04-15T18:07:11.312Z,7.60
2023-04-15T18:09:39.040Z,8.37
2023-04-15T18:12:07.753Z,6.93
2023-04-15T18:14:35.787Z,10.17
2023-04-15T18:17:03.420Z,7.07
2023-04-15T18:19:31.765Z,8.87
2023-04-15T18:22:00.475Z,8.33
2023-04-15T18:24:28.086Z,8.90
2023-04-15T18:26:56.655Z,10.77
2023-04-15T18:29:25.290Z,8.83
2023-04-15T18:31:53.143Z,8.47
2023-04-15T18:34:20.473Z,16.80
2023-04-15T18:36:47.663Z,8.07
2023-04-15T18:39:15.211Z,6.13
2023-04-15T18:41:42.419Z,8.40
2023-04-15T18:44:10.081Z,15.07
2023-04-15T18:46:38.783Z,9.67
2023-04-15T18:49:06.320Z,8.57
2023-04-15T18:51:33.897Z,7.63
2023-04-15T18:54:01.348Z,6.70
2023-04-15T18:56:28.592Z,9.10
2023-04-15T18:59:25.864Z,10.00
2023-04-15T19:01:43.241Z,7.23
2023-04-15T19:04:11.309Z,8.53
2023-04-15T19:06:38.843Z,10.80
2023-04-15T19:09:06.269Z,8.57
2023-04-15T19:11:33.824Z,6.97
2023-04-15T19:14:01.636Z,6.77
2023-04-15T19:16:29.017Z,9.13
2023-04-15T19:18:56.228Z,10.40
2023-04-15T19:21:23.572Z,11.23
2023-04-15T19:23:50.822Z,5.47
2023-04-15T19:26:18.141Z,10.90
2023-04-15T19:28:45.665Z,10.03
2023-04-15T19:31:13.186Z,10.03
2023-04-15T19:33:40.425Z,10.07
2023-04-15T19:36:11.680Z,13.73
2023-04-15T19:38:39.110Z,12.23
2023-04-15T19:41:06.349Z,9.40
2023-04-15T19:43:33.724Z,16.23
2023-04-15T19:46:00.959Z,12.50
2023-04-15T19:48:28.200Z,14.67
2023-04-15T19:50:55.549Z,10.47
2023-04-15T19:53:22.776Z,13.63
2023-04-15T19:55:50.032Z,11.47
2023-04-15T19:58:17.253Z,9.60
2023-04-15T20:00:44.485Z,13.57
2023-04-15T20:03:11.868Z,10.17
2023-04-15T20:05:42.372Z,10.20
2023-04-15T20:08:09.819Z,12.77
2023-04-15T20:10:40.137Z,9.57
2023-04-15T20:13:09.749Z,12.30
2023-04-15T20:15:37.257Z,12.47
2023-04-15T20:18:04.667Z,10.63
2023-04-15T20:20:32.009Z,10.77
2023-04-15T20:22:59.238Z,11.97
2023-04-15T20:25:26.544Z,18.83
2023-04-15T20:27:53.841Z,15.10
2023-04-15T20:30:21.245Z,13.40
2023-04-15T20:32:48.646Z,13.47
2023-04-15T20:35:16.143Z,12.57
2023-04-15T20:37:45.046Z,18.10
2023-04-15T20:40:12.619Z,15.33
2023-04-15T20:42:39.949Z,13.27
2023-04-15T20:45:07.824Z,19.83
2023-04-15T20:47:35.013Z,11.53
2023-04-15T20:50:02.330Z,19.30
2023-04-15T20:52:29.592Z,14.07
2023-04-15T20:54:56.772Z,10.50
2023-04-15T20:57:24.685Z,20.80
2023-04-15T20:59:51.867Z,17.07
2023-04-15T21:02:19.140Z,20.97
2023-04-15T21:04:47.170Z,24.67
2023-04-15T21:07:14.320Z,28.00
2023-04-15T21:09:42.959Z,26.63
2023-04-15T21:12:12.130Z,32.30
2023-04-15T21:14:40.276Z,31.33
2023-04-15T21:17:10.792Z,38.80
2023-04-15T21:19:38.855Z,31.50
2023-04-15T21:22:06.045Z,37.47
2023-04-15T21:24:33.306Z,33.97
2023-04-15T21:27:02.030Z,31.73
2023-04-15T21:29:29.325Z,27.13
2023-04-15T21:31:56.519Z,40.37
2023-04-15T21:34:23.773Z,30.37
2023-04-15T21:36:50.937Z,34.03
2023-04-15T21:39:18.214Z,37.80
2023-04-15T21:41:45.620Z,39.20
2023-04-15T21:44:15.077Z,26.30
2023-04-15T21:46:46.142Z,28.60
2023-04-15T21:49:13.562Z,19.67
2023-04-15T21:51:40.859Z,21.30
2023-04-15T21:54:11.274Z,19.97
2023-04-15T21:56:42.308Z,22.83
2023-04-15T21:59:09.627Z,25.60
2023-04-15T22:01:37.060Z,35.17
2023-04-15T22:04:05.963Z,29.37
2023-04-15T22:06:33.420Z,25.87
2023-04-15T22:09:00.577Z,24.63
2023-04-15T22:11:28.428Z,20.93
2023-04-15T22:13:56.906Z,11.83
2023-04-15T22:16:25.094Z,15.13
2023-04-15T22:18:52.393Z,17.97
2023-04-15T22:21:19.779Z,22.60
2023-04-15T22:23:47.769Z,21.30
2023-04-15T22:26:15.040Z,10.10
2023-04-15T22:28:42.241Z,11.80
2023-04-15T22:31:13.724Z,13.33
2023-04-15T22:33:40.976Z,14.47
2023-04-15T22:36:11.199Z,19.10
2023-04-15T22:38:40.840Z,18.97
2023-04-15T22:41:08.300Z,17.27
2023-04-15T22:43:35.757Z,17.70
2023-04-15T22:46:02.939Z,27.23
2023-04-15T22:48:30.377Z,19.00
2023-04-15T22:50:57.777Z,22.57
2023-04-15T22:53:24.924Z,17.17
2023-04-15T22:55:52.279Z,25.47
2023-04-15T22:58:19.526Z,27.50
2023-04-15T23:00:46.895Z,29.73
2023-04-15T23:03:14.218Z,28.10
2023-04-15T23:05:42.010Z,26.40
2023-04-15T23:08:09.461Z,21.17
2023-04-15T23:10:37.561Z,24.60
2023-04-15T23:13:04.771Z,17.70
2023-04-15T23:15:31.960Z,23.07
2023-04-15T23:18:00.443Z,24.70
2023-04-15T23:20:27.779Z,31.53
2023-04-15T23:22:54.928Z,30.23
2023-04-15T23:25:22.744Z,27.47
2023-04-15T23:27:49.910Z,27.87
2023-04-15T23:30:17.253Z,28.43
2023-04-15T23:32:44.482Z,28.63
2023-04-15T23:35:11.931Z,24.47
2023-04-15T23:37:41.945Z,24.07
2023-04-15T23:40:12.109Z,31.50
2023-04-15T23:42:39.464Z,32.37
2023-04-15T23:45:06.913Z,29.50
2023-04-15T23:47:34.158Z,30.83
2023-04-15T23:50:01.389Z,37.87
2023-04-15T23:52:28.552Z,24.67
2023-04-15T23:54:55.659Z,28.37
2023-04-15T23:57:22.799Z,24.60
2023-04-15T23:59:50.205Z,20.63
